PASY METAR and TAF weather

Enter ICAO airport designator
Station Type Date Time Source
PASY METAR 2020/09/20 09:55 UTC NOAA

PASY 200955Z 31034G44KT 5SM BR BKN011 09/08 A2939 RMK AO2A PK WND 29044/53 CIG 010V015 PRESRR SLP955 T00880079 RVRNO PNO $


Station Type Date Time Source
PASY Decoded METAR 2020/09/20 09:55 UTC NOAA

SHEMYA EARECKSON AS, AK, United States (PASY) 52-43N 174-07E
Sep 20, 2020 - 05:55 AM EDT / 2020.09.20 0955 UTC
Wind: from the NW (310 degrees) at 39 MPH (34 KT) gusting to 51 MPH (44 KT):0
Visibility: 5 mile(s):0
Sky conditions: mostly cloudy
Weather: mist
Temperature: 47.8 F (8.8 C)
Dew Point: 46.2 F (7.9 C)
Relative Humidity: 94%
Pressure (altimeter): 29.39 in. Hg (995 hPa)
Pressure tendency: rising rapidly
ob: PASY 200955Z 31034G44KT 5SM BR BKN011 09/08 A2939 RMK AO2A PK WND 29044/53 CIG 010V015 PRESRR SLP955 T00880079 RVRNO PNO
cycle: 10

Station Type Date Time Source
PASY TAF 2020/09/20 10:35 UTC NOAA

TAF
AMD PASY 201020Z 2010/2112 29035G45KT 4800 BR BKN013 OVC017 530005 QNH2889INS
TEMPO 2010/2011 31040G50KT 3200 BR BKN008 560005
BECMG 2011/2012 29025G35KT 6000 BR OVC008 520005 QNH2943INS
BECMG 2013/2014 02015G25KT 8000 BR OVC008 QNH2920INS TX11/2101Z TN05/2015Z

Example: see airport list